createdAt,value
2022-10-18T00:02:05.674Z,13.00
2022-10-18T00:07:08.375Z,13.57
2022-10-18T00:12:10.684Z,12.75
2022-10-18T00:17:14.694Z,14.20
2022-10-18T00:27:33.947Z,12.75
2022-10-18T00:32:38.600Z,14.13
2022-10-18T00:37:41.296Z,11.88
2022-10-18T00:42:43.564Z,12.40
2022-10-18T00:47:52.080Z,12.40
2022-10-18T00:52:57.401Z,13.60
2022-10-18T00:58:00.174Z,13.07
2022-10-18T01:03:07.330Z,13.00
2022-10-18T01:08:36.207Z,13.52
2022-10-18T01:13:50.192Z,13.82
2022-10-18T01:19:12.970Z,13.85
2022-10-18T01:30:27.503Z,13.30
2022-10-18T01:35:34.641Z,12.52
2022-10-18T01:40:38.763Z,13.07
2022-10-18T01:45:46.745Z,13.10
2022-10-18T01:50:49.017Z,13.13
2022-10-18T01:55:56.880Z,12.40
2022-10-18T02:06:20.269Z,14.18
2022-10-18T02:11:23.079Z,13.32
2022-10-18T02:16:34.814Z,12.93
2022-10-18T02:21:40.225Z,12.65
2022-10-18T02:26:42.886Z,13.77
2022-10-18T02:31:49.691Z,13.40
2022-10-18T02:36:54.369Z,12.63
2022-10-18T02:41:57.861Z,14.10
2022-10-18T02:47:01.748Z,13.20
2022-10-18T02:52:04.474Z,15.85
2022-10-18T02:57:09.567Z,14.87
2022-10-18T03:02:16.358Z,13.70
2022-10-18T03:07:18.679Z,14.52
2022-10-18T03:12:21.253Z,13.90
2022-10-18T03:17:24.692Z,14.18
2022-10-18T03:27:31.331Z,15.00
2022-10-18T03:32:35.685Z,17.30
2022-10-18T03:37:38.216Z,19.98
2022-10-18T03:42:41.690Z,21.05
2022-10-18T03:53:13.999Z,25.20
2022-10-18T04:09:30.343Z,24.40
2022-10-18T04:19:52.136Z,25.08
2022-10-18T04:24:55.203Z,26.35
2022-10-18T10:13:48.985Z,11.60
2022-10-18T10:18:53.928Z,10.43
2022-10-18T10:23:58.592Z,10.35
2022-10-18T10:29:01.756Z,9.98
2022-10-18T10:34:05.879Z,9.35
2022-10-18T10:39:12.914Z,9.23
2022-10-18T10:44:18.136Z,7.80
2022-10-18T10:54:50.346Z,6.85
2022-10-18T10:59:56.808Z,6.65
2022-10-18T13:27:47.620Z,5.47
2022-10-18T13:33:24.840Z,5.62
2022-10-18T18:52:29.301Z,7.75
2022-10-18T19:03:05.741Z,8.18
2022-10-18T19:13:55.651Z,8.90
2022-10-18T19:19:00.215Z,7.78
2022-10-18T19:35:14.566Z,8.48
2022-10-18T19:51:03.764Z,8.40
2022-10-18T20:13:14.561Z,11.68
2022-10-18T21:06:19.902Z,10.32
2022-10-18T21:17:04.923Z,9.23
2022-10-18T21:27:51.633Z,7.53
2022-10-18T21:39:09.842Z,8.90
2022-10-18T21:44:19.816Z,8.48
2022-10-18T21:54:48.875Z,8.35
2022-10-18T21:59:53.684Z,8.23
2022-10-18T22:05:00.417Z,9.23
2022-10-18T22:10:02.961Z,11.55
2022-10-18T22:15:05.729Z,11.35
2022-10-18T22:25:30.211Z,14.15
2022-10-18T22:30:35.898Z,13.68
2022-10-18T22:35:38.452Z,14.75
2022-10-18T22:40:42.780Z,15.05
2022-10-18T22:45:47.323Z,14.80
2022-10-18T22:50:55.244Z,15.83
2022-10-18T22:56:00.207Z,15.88
2022-10-18T23:01:04.370Z,18.27
2022-10-18T23:06:19.156Z,17.30
2022-10-18T23:11:25.639Z,22.13
2022-10-18T23:16:28.717Z,23.42
2022-10-18T23:21:32.578Z,20.85
2022-10-18T23:26:39.260Z,18.08
2022-10-18T23:31:42.393Z,18.12
2022-10-18T23:36:50.455Z,17.58
2022-10-18T23:41:55.706Z,19.05
2022-10-18T23:52:01.922Z,16.95
2022-10-18T23:57:17.267Z,17.58
